Decoded Metar for LQSA (SARAJEVO in BOSNIA-HERCEGOVINA) (IATA:SJJ) | Meteo·Mobile Aviation Weather
aviador You're here:

LQSA Decoded Metar

SARAJEVO in BOSNIA-HERCEGOVINA
Report Time2019-03-23 18:30:00
UTC Time2019-03-23 20:25:16
Flight Rules Old
WindVRB at 02 kt
Visibility9999 m
Phenomena:N/A
Clouds:N/A
Expected CloudBase > 3,200 ft AGL from Temp-Dew spread
CeilingNone
Temp11°C (ISA -1)
Dew Point03°C (58% RH)
AAT8.8°C
QNH1024 hPa
Density Alt1,335 ft
Elevation1,677 ft
Report Wrong Elevation
Raw Report
METAR LQSA 231830Z VRB02KT CAVOK 11/03 Q1024 NOSIG=

Extra information for LQSA:More info

Metar Taf Metar & Taf Last 4 Metars F.Rules Stats Wind Profile Meteogram Temp Stats Airport Information Weather charts Add Link Nearby VenuesMetar ALERT Operation Metar Decoded Social comments